sensor_id;sensor_type;location;lat;lon;timestamp;temperature;humidity
29007;DHT22;16104;48.642;9.008;2022-09-27T01:02:26;12.70;66.40
29007;DHT22;16104;48.642;9.008;2022-09-27T01:07:22;12.70;66.60
29007;DHT22;16104;48.642;9.008;2022-09-27T01:12:30;12.70;66.80
29007;DHT22;16104;48.642;9.008;2022-09-27T02:03:22;12.80;67.80
29007;DHT22;16104;48.642;9.008;2022-09-27T02:08:35;12.80;68.20
29007;DHT22;16104;48.642;9.008;2022-09-27T02:13:44;12.80;68.70
29007;DHT22;16104;48.642;9.008;2022-09-27T03:09:48;12.80;66.90
29007;DHT22;16104;48.642;9.008;2022-09-27T03:14:44;12.70;66.80
29007;DHT22;16104;48.642;9.008;2022-09-27T03:19:40;12.70;66.50
29007;DHT22;16104;48.642;9.008;2022-09-27T03:24:35;12.70;66.50
29007;DHT22;16104;48.642;9.008;2022-09-27T03:29:31;12.70;66.50
29007;DHT22;16104;48.642;9.008;2022-09-27T03:34:27;12.70;66.60
29007;DHT22;16104;48.642;9.008;2022-09-27T03:39:23;12.60;66.40
29007;DHT22;16104;48.642;9.008;2022-09-27T03:44:19;12.70;66.70
29007;DHT22;16104;48.642;9.008;2022-09-27T03:49:14;12.60;66.40
29007;DHT22;16104;48.642;9.008;2022-09-27T03:54:10;12.60;66.30
29007;DHT22;16104;48.642;9.008;2022-09-27T03:59:06;12.60;66.30
29007;DHT22;16104;48.642;9.008;2022-09-27T04:04:02;12.50;66.30
29007;DHT22;16104;48.642;9.008;2022-09-27T04:08:58;12.50;66.30
29007;DHT22;16104;48.642;9.008;2022-09-27T04:13:54;12.50;66.50
29007;DHT22;16104;48.642;9.008;2022-09-27T04:18:50;12.50;66.50
29007;DHT22;16104;48.642;9.008;2022-09-27T04:23:46;12.40;66.40
29007;DHT22;16104;48.642;9.008;2022-09-27T04:28:42;12.40;66.40
29007;DHT22;16104;48.642;9.008;2022-09-27T04:33:38;12.30;66.30
29007;DHT22;16104;48.642;9.008;2022-09-27T04:38:34;12.30;66.40
29007;DHT22;16104;48.642;9.008;2022-09-27T04:43:30;12.30;66.40
29007;DHT22;16104;48.642;9.008;2022-09-27T04:48:26;12.30;66.40
29007;DHT22;16104;48.642;9.008;2022-09-27T04:53:22;12.20;66.20
29007;DHT22;16104;48.642;9.008;2022-09-27T04:58:17;12.20;66.20
29007;DHT22;16104;48.642;9.008;2022-09-27T05:03:13;12.10;66.20
29007;DHT22;16104;48.642;9.008;2022-09-27T05:08:09;12.10;66.30
29007;DHT22;16104;48.642;9.008;2022-09-27T05:13:05;12.10;66.40
29007;DHT22;16104;48.642;9.008;2022-09-27T05:18:01;12.10;66.30
29007;DHT22;16104;48.642;9.008;2022-09-27T05:22:56;12.00;66.30
29007;DHT22;16104;48.642;9.008;2022-09-27T05:27:52;12.00;66.50
29007;DHT22;16104;48.642;9.008;2022-09-27T05:32:47;12.00;66.70
29007;DHT22;16104;48.642;9.008;2022-09-27T05:37:55;12.00;66.80
29007;DHT22;16104;48.642;9.008;2022-09-27T05:42:52;11.90;67.30
29007;DHT22;16104;48.642;9.008;2022-09-27T05:47:55;11.90;67.00
29007;DHT22;16104;48.642;9.008;2022-09-27T05:52:51;11.90;67.30
29007;DHT22;16104;48.642;9.008;2022-09-27T05:57:55;11.90;66.80
29007;DHT22;16104;48.642;9.008;2022-09-27T06:02:59;11.90;67.80
29007;DHT22;16104;48.642;9.008;2022-09-27T06:08:04;11.90;67.10
29007;DHT22;16104;48.642;9.008;2022-09-27T06:13:03;11.90;66.90
29007;DHT22;16104;48.642;9.008;2022-09-27T06:18:11;11.90;66.60
29007;DHT22;16104;48.642;9.008;2022-09-27T06:23:10;11.90;66.80
29007;DHT22;16104;48.642;9.008;2022-09-27T06:28:07;11.90;66.60
29007;DHT22;16104;48.642;9.008;2022-09-27T06:33:04;12.00;66.60
29007;DHT22;16104;48.642;9.008;2022-09-27T06:38:05;12.00;66.50
29007;DHT22;16104;48.642;9.008;2022-09-27T06:43:07;12.00;66.40
29007;DHT22;16104;48.642;9.008;2022-09-27T06:48:05;12.00;66.20
29007;DHT22;16104;48.642;9.008;2022-09-27T06:53:02;12.00;66.70
29007;DHT22;16104;48.642;9.008;2022-09-27T06:57:59;12.00;65.60
29007;DHT22;16104;48.642;9.008;2022-09-27T07:03:14;12.00;65.60
29007;DHT22;16104;48.642;9.008;2022-09-27T07:08:10;12.00;65.80
29007;DHT22;16104;48.642;9.008;2022-09-27T07:13:09;12.00;65.70
29007;DHT22;16104;48.642;9.008;2022-09-27T07:18:06;12.10;65.50
29007;DHT22;16104;48.642;9.008;2022-09-27T07:23:03;12.10;65.20
29007;DHT22;16104;48.642;9.008;2022-09-27T07:28:04;12.10;65.20
29007;DHT22;16104;48.642;9.008;2022-09-27T07:33:01;12.10;66.20
29007;DHT22;16104;48.642;9.008;2022-09-27T07:37:57;12.20;65.30
29007;DHT22;16104;48.642;9.008;2022-09-27T07:42:54;12.20;64.90
29007;DHT22;16104;48.642;9.008;2022-09-27T07:47:50;12.30;64.80
29007;DHT22;16104;48.642;9.008;2022-09-27T07:52:47;12.30;64.80
29007;DHT22;16104;48.642;9.008;2022-09-27T07:57:44;12.30;64.90
29007;DHT22;16104;48.642;9.008;2022-09-27T08:02:41;12.40;64.50
29007;DHT22;16104;48.642;9.008;2022-09-27T08:07:38;12.40;64.20
29007;DHT22;16104;48.642;9.008;2022-09-27T08:12:34;12.50;64.50
29007;DHT22;16104;48.642;9.008;2022-09-27T08:17:31;12.60;64.40
29007;DHT22;16104;48.642;9.008;2022-09-27T08:22:27;12.60;64.80
29007;DHT22;16104;48.642;9.008;2022-09-27T08:27:23;12.70;65.00
29007;DHT22;16104;48.642;9.008;2022-09-27T08:32:19;12.90;64.60
29007;DHT22;16104;48.642;9.008;2022-09-27T08:37:14;13.00;64.00
29007;DHT22;16104;48.642;9.008;2022-09-27T08:42:50;13.00;63.00
29007;DHT22;16104;48.642;9.008;2022-09-27T08:48:00;13.00;62.30
29007;DHT22;16104;48.642;9.008;2022-09-27T08:58:29;12.90;62.80
29007;DHT22;16104;48.642;9.008;2022-09-27T09:03:29;12.90;62.00
29007;DHT22;16104;48.642;9.008;2022-09-27T09:34:59;12.80;62.00
29007;DHT22;16104;48.642;9.008;2022-09-27T09:40:07;12.90;62.50
29007;DHT22;16104;48.642;9.008;2022-09-27T09:45:17;13.10;62.00
29007;DHT22;16104;48.642;9.008;2022-09-27T09:50:21;13.20;63.10
29007;DHT22;16104;48.642;9.008;2022-09-27T09:55:50;13.50;62.90
29007;DHT22;16104;48.642;9.008;2022-09-27T10:00:47;13.70;61.10
29007;DHT22;16104;48.642;9.008;2022-09-27T10:05:45;13.90;61.70
29007;DHT22;16104;48.642;9.008;2022-09-27T10:10:41;14.00;61.50
29007;DHT22;16104;48.642;9.008;2022-09-27T10:15:37;14.10;61.40
29007;DHT22;16104;48.642;9.008;2022-09-27T10:20:46;14.30;60.90
29007;DHT22;16104;48.642;9.008;2022-09-27T10:25:58;14.40;59.90
29007;DHT22;16104;48.642;9.008;2022-09-27T10:30:56;14.50;59.80
29007;DHT22;16104;48.642;9.008;2022-09-27T10:35:52;14.60;60.20
29007;DHT22;16104;48.642;9.008;2022-09-27T10:40:51;14.60;60.70
29007;DHT22;16104;48.642;9.008;2022-09-27T10:45:48;14.70;60.10
29007;DHT22;16104;48.642;9.008;2022-09-27T10:50:56;14.90;59.90
29007;DHT22;16104;48.642;9.008;2022-09-27T10:55:54;15.10;58.90
29007;DHT22;16104;48.642;9.008;2022-09-27T11:00:58;15.30;58.90
29007;DHT22;16104;48.642;9.008;2022-09-27T11:05:55;15.40;57.70
29007;DHT22;16104;48.642;9.008;2022-09-27T11:11:19;15.60;58.20
29007;DHT22;16104;48.642;9.008;2022-09-27T11:26:40;16.10;55.50
29007;DHT22;16104;48.642;9.008;2022-09-27T11:42:50;15.80;56.90
29007;DHT22;16104;48.642;9.008;2022-09-27T11:48:13;15.70;57.40
29007;DHT22;16104;48.642;9.008;2022-09-27T12:03:48;15.40;57.70
29007;DHT22;16104;48.642;9.008;2022-09-27T12:14:05;15.10;57.90
29007;DHT22;16104;48.642;9.008;2022-09-27T12:19:02;14.90;58.40
29007;DHT22;16104;48.642;9.008;2022-09-27T12:23:58;14.80;59.00
29007;DHT22;16104;48.642;9.008;2022-09-27T12:28:58;14.60;59.40
29007;DHT22;16104;48.642;9.008;2022-09-27T12:39:05;14.50;59.70
29007;DHT22;16104;48.642;9.008;2022-09-27T12:44:11;14.40;60.00
29007;DHT22;16104;48.642;9.008;2022-09-27T12:49:26;14.30;60.00
29007;DHT22;16104;48.642;9.008;2022-09-27T13:15:44;14.20;61.10
29007;DHT22;16104;48.642;9.008;2022-09-27T13:20:42;14.20;61.30
29007;DHT22;16104;48.642;9.008;2022-09-27T13:30:54;14.10;61.20
29007;DHT22;16104;48.642;9.008;2022-09-27T13:41:19;14.20;61.30
29007;DHT22;16104;48.642;9.008;2022-09-27T13:46:20;14.30;60.90
29007;DHT22;16104;48.642;9.008;2022-09-27T13:51:29;14.40;60.30
29007;DHT22;16104;48.642;9.008;2022-09-27T14:01:41;14.40;57.90
29007;DHT22;16104;48.642;9.008;2022-09-27T14:06:43;14.40;58.40
29007;DHT22;16104;48.642;9.008;2022-09-27T14:11:42;14.40;58.10
29007;DHT22;16104;48.642;9.008;2022-09-27T14:16:41;14.40;57.90
29007;DHT22;16104;48.642;9.008;2022-09-27T14:21:39;14.40;57.50
29007;DHT22;16104;48.642;9.008;2022-09-27T14:26:34;14.40;58.40
29007;DHT22;16104;48.642;9.008;2022-09-27T14:31:30;14.50;58.60
29007;DHT22;16104;48.642;9.008;2022-09-27T14:36:30;14.60;58.30
29007;DHT22;16104;48.642;9.008;2022-09-27T14:41:45;14.80;58.20
29007;DHT22;16104;48.642;9.008;2022-09-27T14:46:42;14.90;57.50
29007;DHT22;16104;48.642;9.008;2022-09-27T14:51:37;15.00;56.90
29007;DHT22;16104;48.642;9.008;2022-09-27T14:56:35;15.00;56.30
29007;DHT22;16104;48.642;9.008;2022-09-27T15:01:32;14.90;56.30
29007;DHT22;16104;48.642;9.008;2022-09-27T15:06:29;14.80;56.40
29007;DHT22;16104;48.642;9.008;2022-09-27T15:11:25;14.80;56.50
29007;DHT22;16104;48.642;9.008;2022-09-27T15:16:24;14.80;56.70
29007;DHT22;16104;48.642;9.008;2022-09-27T15:21:32;14.90;56.40
29007;DHT22;16104;48.642;9.008;2022-09-27T15:26:38;15.10;55.50
29007;DHT22;16104;48.642;9.008;2022-09-27T15:31:35;15.10;54.90
29007;DHT22;16104;48.642;9.008;2022-09-27T15:36:52;15.10;55.40
29007;DHT22;16104;48.642;9.008;2022-09-27T15:42:05;15.10;54.50
29007;DHT22;16104;48.642;9.008;2022-09-27T15:47:01;15.00;54.60
29007;DHT22;16104;48.642;9.008;2022-09-27T15:51:59;14.90;54.90
29007;DHT22;16104;48.642;9.008;2022-09-27T15:56:56;14.80;55.00
29007;DHT22;16104;48.642;9.008;2022-09-27T16:01:58;14.80;55.30
29007;DHT22;16104;48.642;9.008;2022-09-27T16:06:54;14.80;55.00
29007;DHT22;16104;48.642;9.008;2022-09-27T16:11:50;14.80;54.80
29007;DHT22;16104;48.642;9.008;2022-09-27T16:16:48;14.70;54.60
29007;DHT22;16104;48.642;9.008;2022-09-27T16:21:45;14.60;54.60
29007;DHT22;16104;48.642;9.008;2022-09-27T16:26:42;14.50;54.70
29007;DHT22;16104;48.642;9.008;2022-09-27T16:31:39;14.40;54.60
29007;DHT22;16104;48.642;9.008;2022-09-27T16:36:35;14.30;54.90
29007;DHT22;16104;48.642;9.008;2022-09-27T16:41:32;14.10;56.00
29007;DHT22;16104;48.642;9.008;2022-09-27T16:46:27;14.00;55.60
29007;DHT22;16104;48.642;9.008;2022-09-27T16:51:23;13.90;56.00
29007;DHT22;16104;48.642;9.008;2022-09-27T16:56:37;13.70;56.00
29007;DHT22;16104;48.642;9.008;2022-09-27T17:01:33;13.60;56.30
29007;DHT22;16104;48.642;9.008;2022-09-27T17:06:29;13.50;56.20
29007;DHT22;16104;48.642;9.008;2022-09-27T17:11:26;13.40;56.60
29007;DHT22;16104;48.642;9.008;2022-09-27T17:16:22;13.40;56.80
29007;DHT22;16104;48.642;9.008;2022-09-27T17:21:18;13.30;56.80
29007;DHT22;16104;48.642;9.008;2022-09-27T17:26:17;13.20;56.90
29007;DHT22;16104;48.642;9.008;2022-09-27T17:31:15;13.10;57.20
29007;DHT22;16104;48.642;9.008;2022-09-27T17:36:17;13.00;57.60
29007;DHT22;16104;48.642;9.008;2022-09-27T17:41:15;13.00;58.10
29007;DHT22;16104;48.642;9.008;2022-09-27T17:46:11;12.90;58.40
29007;DHT22;16104;48.642;9.008;2022-09-27T17:51:11;12.80;58.50
29007;DHT22;16104;48.642;9.008;2022-09-27T18:02:00;12.60;59.40
29007;DHT22;16104;48.642;9.008;2022-09-27T18:06:56;12.50;59.40
29007;DHT22;16104;48.642;9.008;2022-09-27T18:11:51;12.50;59.70
29007;DHT22;16104;48.642;9.008;2022-09-27T18:16:47;12.40;59.80
29007;DHT22;16104;48.642;9.008;2022-09-27T18:27:35;12.30;61.00
29007;DHT22;16104;48.642;9.008;2022-09-27T18:32:30;12.20;60.60
29007;DHT22;16104;48.642;9.008;2022-09-27T18:37:28;12.10;60.80
29007;DHT22;16104;48.642;9.008;2022-09-27T18:42:24;12.00;61.50
29007;DHT22;16104;48.642;9.008;2022-09-27T18:47:20;11.90;61.70
29007;DHT22;16104;48.642;9.008;2022-09-27T18:52:15;11.90;61.70
29007;DHT22;16104;48.642;9.008;2022-09-27T18:57:11;11.80;61.80
29007;DHT22;16104;48.642;9.008;2022-09-27T19:02:08;11.80;62.10
29007;DHT22;16104;48.642;9.008;2022-09-27T19:07:04;11.70;62.40
29007;DHT22;16104;48.642;9.008;2022-09-27T19:12:00;11.70;62.40
29007;DHT22;16104;48.642;9.008;2022-09-27T19:16:56;11.60;62.40
29007;DHT22;16104;48.642;9.008;2022-09-27T19:21:51;11.50;62.40
29007;DHT22;16104;48.642;9.008;2022-09-27T19:26:47;11.50;62.50
29007;DHT22;16104;48.642;9.008;2022-09-27T19:31:44;11.40;62.50
29007;DHT22;16104;48.642;9.008;2022-09-27T19:36:39;11.40;62.50
29007;DHT22;16104;48.642;9.008;2022-09-27T19:41:35;11.30;62.70
29007;DHT22;16104;48.642;9.008;2022-09-27T19:46:40;11.20;62.80
29007;DHT22;16104;48.642;9.008;2022-09-27T19:51:36;11.20;63.40
29007;DHT22;16104;48.642;9.008;2022-09-27T19:56:32;11.10;63.40
29007;DHT22;16104;48.642;9.008;2022-09-27T20:01:28;11.00;63.60
29007;DHT22;16104;48.642;9.008;2022-09-27T20:06:24;11.00;63.80
29007;DHT22;16104;48.642;9.008;2022-09-27T20:11:22;11.00;64.00
29007;DHT22;16104;48.642;9.008;2022-09-27T20:16:20;10.90;64.20
29007;DHT22;16104;48.642;9.008;2022-09-27T20:21:17;10.90;64.40
29007;DHT22;16104;48.642;9.008;2022-09-27T20:26:14;10.90;64.60
29007;DHT22;16104;48.642;9.008;2022-09-27T20:31:12;10.80;64.70
29007;DHT22;16104;48.642;9.008;2022-09-27T20:36:12;10.80;64.80
29007;DHT22;16104;48.642;9.008;2022-09-27T20:41:08;10.80;64.90
29007;DHT22;16104;48.642;9.008;2022-09-27T20:46:07;10.80;65.10
29007;DHT22;16104;48.642;9.008;2022-09-27T20:51:04;10.80;65.40
29007;DHT22;16104;48.642;9.008;2022-09-27T20:56:01;10.80;65.50
29007;DHT22;16104;48.642;9.008;2022-09-27T21:01:03;10.80;65.70
29007;DHT22;16104;48.642;9.008;2022-09-27T21:05:59;10.80;66.30
29007;DHT22;16104;48.642;9.008;2022-09-27T21:11:01;10.80;66.20
29007;DHT22;16104;48.642;9.008;2022-09-27T21:16:02;10.80;66.40
29007;DHT22;16104;48.642;9.008;2022-09-27T21:21:06;10.80;67.70
29007;DHT22;16104;48.642;9.008;2022-09-27T21:26:05;10.90;67.30
29007;DHT22;16104;48.642;9.008;2022-09-27T21:31:06;10.90;67.00
29007;DHT22;16104;48.642;9.008;2022-09-27T21:36:04;10.90;67.30
29007;DHT22;16104;48.642;9.008;2022-09-27T21:41:03;10.90;67.30
29007;DHT22;16104;48.642;9.008;2022-09-27T21:51:14;11.00;68.00
29007;DHT22;16104;48.642;9.008;2022-09-27T21:56:10;11.00;67.50
29007;DHT22;16104;48.642;9.008;2022-09-27T22:01:11;11.00;67.50
29007;DHT22;16104;48.642;9.008;2022-09-27T22:06:16;11.00;67.90
29007;DHT22;16104;48.642;9.008;2022-09-27T22:11:18;11.00;67.80
29007;DHT22;16104;48.642;9.008;2022-09-27T22:16:15;11.10;67.80
29007;DHT22;16104;48.642;9.008;2022-09-27T22:21:15;11.10;67.60
29007;DHT22;16104;48.642;9.008;2022-09-27T22:26:17;11.10;67.90
29007;DHT22;16104;48.642;9.008;2022-09-27T22:31:14;11.20;68.00
29007;DHT22;16104;48.642;9.008;2022-09-27T22:36:10;11.20;67.70
29007;DHT22;16104;48.642;9.008;2022-09-27T22:41:06;11.20;67.60
29007;DHT22;16104;48.642;9.008;2022-09-27T22:46:01;11.20;68.60
29007;DHT22;16104;48.642;9.008;2022-09-27T22:50:58;11.30;67.90
29007;DHT22;16104;48.642;9.008;2022-09-27T23:00:58;11.30;68.40
29007;DHT22;16104;48.642;9.008;2022-09-27T23:06:00;11.30;68.10
29007;DHT22;16104;48.642;9.008;2022-09-27T23:16:04;11.30;68.90
29007;DHT22;16104;48.642;9.008;2022-09-27T23:21:03;11.40;68.60
29007;DHT22;16104;48.642;9.008;2022-09-27T23:26:04;11.30;68.90
29007;DHT22;16104;48.642;9.008;2022-09-27T23:31:10;11.30;68.90
29007;DHT22;16104;48.642;9.008;2022-09-27T23:36:09;11.40;69.30
29007;DHT22;16104;48.642;9.008;2022-09-27T23:41:06;11.40;69.10
29007;DHT22;16104;48.642;9.008;2022-09-27T23:46:03;11.40;69.10
29007;DHT22;16104;48.642;9.008;2022-09-27T23:51:00;11.40;69.30
29007;DHT22;16104;48.642;9.008;2022-09-27T23:56:01;11.40;69.30
